sensor_id;sensor_type;location;lat;lon;timestamp;P1;durP1;ratioP1;P2;durP2;ratioP2
18142;SDS011;9197;50.930;3.140;2022-11-21T00:01:24;7.63;;;2.17;;
18142;SDS011;9197;50.930;3.140;2022-11-21T00:03:52;10.30;;;2.63;;
18142;SDS011;9197;50.930;3.140;2022-11-21T00:06:19;8.80;;;1.77;;
18142;SDS011;9197;50.930;3.140;2022-11-21T00:08:48;5.67;;;1.80;;
18142;SDS011;9197;50.930;3.140;2022-11-21T00:11:16;3.87;;;1.50;;
18142;SDS011;9197;50.930;3.140;2022-11-21T00:13:43;4.03;;;2.03;;
18142;SDS011;9197;50.930;3.140;2022-11-21T00:16:11;6.30;;;1.53;;
18142;SDS011;9197;50.930;3.140;2022-11-21T00:18:38;3.37;;;1.50;;
18142;SDS011;9197;50.930;3.140;2022-11-21T00:21:06;4.30;;;1.77;;
18142;SDS011;9197;50.930;3.140;2022-11-21T00:23:34;6.60;;;2.30;;
18142;SDS011;9197;50.930;3.140;2022-11-21T00:26:05;4.27;;;1.63;;
18142;SDS011;9197;50.930;3.140;2022-11-21T00:28:33;6.33;;;3.10;;
18142;SDS011;9197;50.930;3.140;2022-11-21T00:31:00;4.67;;;1.47;;
18142;SDS011;9197;50.930;3.140;2022-11-21T00:33:27;6.70;;;2.03;;
18142;SDS011;9197;50.930;3.140;2022-11-21T00:35:54;7.40;;;1.70;;
18142;SDS011;9197;50.930;3.140;2022-11-21T00:38:21;1.57;;;0.90;;
18142;SDS011;9197;50.930;3.140;2022-11-21T00:40:49;7.03;;;1.70;;
18142;SDS011;9197;50.930;3.140;2022-11-21T00:43:17;3.60;;;1.30;;
18142;SDS011;9197;50.930;3.140;2022-11-21T00:45:44;6.43;;;1.80;;
18142;SDS011;9197;50.930;3.140;2022-11-21T00:48:12;6.80;;;1.50;;
18142;SDS011;9197;50.930;3.140;2022-11-21T00:50:39;3.77;;;1.67;;
18142;SDS011;9197;50.930;3.140;2022-11-21T00:53:06;6.30;;;2.37;;
18142;SDS011;9197;50.930;3.140;2022-11-21T00:55:33;6.00;;;1.70;;
18142;SDS011;9197;50.930;3.140;2022-11-21T00:58:01;5.17;;;1.30;;
18142;SDS011;9197;50.930;3.140;2022-11-21T01:00:29;3.87;;;1.33;;
18142;SDS011;9197;50.930;3.140;2022-11-21T01:02:56;2.87;;;1.10;;
18142;SDS011;9197;50.930;3.140;2022-11-21T01:05:24;4.07;;;1.20;;
18142;SDS011;9197;50.930;3.140;2022-11-21T01:07:51;3.90;;;1.10;;
18142;SDS011;9197;50.930;3.140;2022-11-21T01:10:18;4.43;;;1.30;;
18142;SDS011;9197;50.930;3.140;2022-11-21T01:12:45;3.80;;;1.17;;
18142;SDS011;9197;50.930;3.140;2022-11-21T01:15:12;5.37;;;1.43;;
18142;SDS011;9197;50.930;3.140;2022-11-21T01:17:41;3.73;;;1.77;;
18142;SDS011;9197;50.930;3.140;2022-11-21T01:20:08;2.63;;;1.23;;
18142;SDS011;9197;50.930;3.140;2022-11-21T01:22:35;3.50;;;1.40;;
18142;SDS011;9197;50.930;3.140;2022-11-21T01:25:03;4.97;;;1.50;;
18142;SDS011;9197;50.930;3.140;2022-11-21T01:27:30;8.13;;;2.20;;
18142;SDS011;9197;50.930;3.140;2022-11-21T01:29:57;5.57;;;1.67;;
18142;SDS011;9197;50.930;3.140;2022-11-21T01:32:25;4.03;;;1.57;;
18142;SDS011;9197;50.930;3.140;2022-11-21T01:34:53;11.30;;;2.27;;
18142;SDS011;9197;50.930;3.140;2022-11-21T01:37:20;6.03;;;2.10;;
18142;SDS011;9197;50.930;3.140;2022-11-21T01:39:47;6.13;;;2.00;;
18142;SDS011;9197;50.930;3.140;2022-11-21T01:42:14;4.60;;;2.10;;
18142;SDS011;9197;50.930;3.140;2022-11-21T01:44:46;5.27;;;1.90;;
18142;SDS011;9197;50.930;3.140;2022-11-21T01:47:13;7.63;;;2.63;;
18142;SDS011;9197;50.930;3.140;2022-11-21T01:49:40;2.47;;;2.00;;
18142;SDS011;9197;50.930;3.140;2022-11-21T01:52:09;5.53;;;2.00;;
18142;SDS011;9197;50.930;3.140;2022-11-21T01:54:38;2.70;;;1.60;;
18142;SDS011;9197;50.930;3.140;2022-11-21T01:57:08;5.53;;;2.37;;
18142;SDS011;9197;50.930;3.140;2022-11-21T01:59:37;7.20;;;2.10;;
18142;SDS011;9197;50.930;3.140;2022-11-21T02:02:06;5.90;;;2.30;;
18142;SDS011;9197;50.930;3.140;2022-11-21T02:04:34;4.87;;;2.20;;
18142;SDS011;9197;50.930;3.140;2022-11-21T02:07:03;8.60;;;2.87;;
18142;SDS011;9197;50.930;3.140;2022-11-21T02:09:34;5.17;;;2.10;;
18142;SDS011;9197;50.930;3.140;2022-11-21T02:12:03;4.93;;;2.43;;
18142;SDS011;9197;50.930;3.140;2022-11-21T02:14:31;5.50;;;1.80;;
18142;SDS011;9197;50.930;3.140;2022-11-21T02:16:59;5.70;;;1.93;;
18142;SDS011;9197;50.930;3.140;2022-11-21T02:19:36;5.27;;;2.40;;
18142;SDS011;9197;50.930;3.140;2022-11-21T02:22:06;3.57;;;2.10;;
18142;SDS011;9197;50.930;3.140;2022-11-21T02:24:38;8.10;;;2.10;;
18142;SDS011;9197;50.930;3.140;2022-11-21T02:27:09;6.97;;;2.13;;
18142;SDS011;9197;50.930;3.140;2022-11-21T02:29:37;3.87;;;1.83;;
18142;SDS011;9197;50.930;3.140;2022-11-21T02:32:05;7.00;;;2.10;;
18142;SDS011;9197;50.930;3.140;2022-11-21T02:34:32;6.13;;;2.30;;
18142;SDS011;9197;50.930;3.140;2022-11-21T02:36:59;5.90;;;1.90;;
18142;SDS011;9197;50.930;3.140;2022-11-21T02:39:29;2.70;;;2.10;;
18142;SDS011;9197;50.930;3.140;2022-11-21T02:41:59;4.53;;;2.30;;
18142;SDS011;9197;50.930;3.140;2022-11-21T02:44:32;4.60;;;2.57;;
18142;SDS011;9197;50.930;3.140;2022-11-21T02:47:04;3.87;;;3.43;;
18142;SDS011;9197;50.930;3.140;2022-11-21T02:49:33;2.97;;;1.70;;
18142;SDS011;9197;50.930;3.140;2022-11-21T02:52:03;3.60;;;1.60;;
18142;SDS011;9197;50.930;3.140;2022-11-21T02:54:31;6.63;;;1.77;;
18142;SDS011;9197;50.930;3.140;2022-11-21T02:56:58;3.20;;;1.97;;
18142;SDS011;9197;50.930;3.140;2022-11-21T02:59:25;3.90;;;1.80;;
18142;SDS011;9197;50.930;3.140;2022-11-21T03:01:53;3.23;;;1.60;;
18142;SDS011;9197;50.930;3.140;2022-11-21T03:04:23;5.90;;;2.10;;
18142;SDS011;9197;50.930;3.140;2022-11-21T03:06:50;7.50;;;2.20;;
18142;SDS011;9197;50.930;3.140;2022-11-21T03:09:18;5.73;;;2.30;;
18142;SDS011;9197;50.930;3.140;2022-11-21T03:11:45;7.07;;;2.47;;
18142;SDS011;9197;50.930;3.140;2022-11-21T03:14:12;6.70;;;2.07;;
18142;SDS011;9197;50.930;3.140;2022-11-21T03:16:39;6.60;;;2.63;;
18142;SDS011;9197;50.930;3.140;2022-11-21T03:19:07;5.20;;;2.43;;
18142;SDS011;9197;50.930;3.140;2022-11-21T03:21:35;5.03;;;2.50;;
18142;SDS011;9197;50.930;3.140;2022-11-21T03:24:02;7.67;;;2.67;;
18142;SDS011;9197;50.930;3.140;2022-11-21T03:26:29;4.50;;;2.30;;
18142;SDS011;9197;50.930;3.140;2022-11-21T03:28:56;6.13;;;3.10;;
18142;SDS011;9197;50.930;3.140;2022-11-21T03:31:23;5.40;;;2.33;;
18142;SDS011;9197;50.930;3.140;2022-11-21T03:33:50;4.33;;;2.57;;
18142;SDS011;9197;50.930;3.140;2022-11-21T03:36:19;4.90;;;2.73;;
18142;SDS011;9197;50.930;3.140;2022-11-21T03:38:46;6.60;;;2.47;;
18142;SDS011;9197;50.930;3.140;2022-11-21T03:41:13;8.97;;;2.70;;
18142;SDS011;9197;50.930;3.140;2022-11-21T03:43:55;6.97;;;2.50;;
18142;SDS011;9197;50.930;3.140;2022-11-21T03:46:23;6.83;;;2.93;;
18142;SDS011;9197;50.930;3.140;2022-11-21T03:48:50;4.83;;;2.77;;
18142;SDS011;9197;50.930;3.140;2022-11-21T03:51:18;9.67;;;2.60;;
18142;SDS011;9197;50.930;3.140;2022-11-21T03:53:46;4.90;;;2.20;;
18142;SDS011;9197;50.930;3.140;2022-11-21T03:56:13;4.97;;;2.60;;
18142;SDS011;9197;50.930;3.140;2022-11-21T03:58:40;7.77;;;2.80;;
18142;SDS011;9197;50.930;3.140;2022-11-21T04:01:08;6.23;;;2.33;;
18142;SDS011;9197;50.930;3.140;2022-11-21T04:03:37;4.30;;;2.03;;
18142;SDS011;9197;50.930;3.140;2022-11-21T04:06:04;5.90;;;2.40;;
18142;SDS011;9197;50.930;3.140;2022-11-21T04:08:32;7.13;;;3.33;;
18142;SDS011;9197;50.930;3.140;2022-11-21T04:11:00;10.57;;;2.30;;
18142;SDS011;9197;50.930;3.140;2022-11-21T04:13:27;7.20;;;2.57;;
18142;SDS011;9197;50.930;3.140;2022-11-21T04:15:54;4.83;;;1.97;;
18142;SDS011;9197;50.930;3.140;2022-11-21T04:18:22;6.43;;;2.40;;
18142;SDS011;9197;50.930;3.140;2022-11-21T04:20:53;5.33;;;3.00;;
18142;SDS011;9197;50.930;3.140;2022-11-21T04:23:21;7.73;;;2.53;;
18142;SDS011;9197;50.930;3.140;2022-11-21T04:25:49;8.17;;;3.00;;
18142;SDS011;9197;50.930;3.140;2022-11-21T04:28:16;3.20;;;2.33;;
18142;SDS011;9197;50.930;3.140;2022-11-21T04:30:43;6.87;;;2.47;;
18142;SDS011;9197;50.930;3.140;2022-11-21T04:33:11;5.33;;;2.40;;
18142;SDS011;9197;50.930;3.140;2022-11-21T04:35:39;4.30;;;1.93;;
18142;SDS011;9197;50.930;3.140;2022-11-21T04:38:06;5.97;;;2.23;;
18142;SDS011;9197;50.930;3.140;2022-11-21T04:40:34;4.87;;;2.70;;
18142;SDS011;9197;50.930;3.140;2022-11-21T04:43:02;4.90;;;2.77;;
18142;SDS011;9197;50.930;3.140;2022-11-21T04:45:30;5.97;;;1.90;;
18142;SDS011;9197;50.930;3.140;2022-11-21T04:47:57;6.23;;;2.53;;
18142;SDS011;9197;50.930;3.140;2022-11-21T04:50:24;5.97;;;2.67;;
18142;SDS011;9197;50.930;3.140;2022-11-21T04:52:51;5.00;;;2.40;;
18142;SDS011;9197;50.930;3.140;2022-11-21T04:55:19;8.27;;;2.80;;
18142;SDS011;9197;50.930;3.140;2022-11-21T04:57:47;9.53;;;3.17;;
18142;SDS011;9197;50.930;3.140;2022-11-21T05:00:16;5.90;;;2.93;;
18142;SDS011;9197;50.930;3.140;2022-11-21T05:02:43;5.80;;;2.80;;
18142;SDS011;9197;50.930;3.140;2022-11-21T05:05:11;6.00;;;2.87;;
18142;SDS011;9197;50.930;3.140;2022-11-21T05:07:38;6.40;;;3.03;;
18142;SDS011;9197;50.930;3.140;2022-11-21T05:10:05;6.27;;;3.40;;
18142;SDS011;9197;50.930;3.140;2022-11-21T05:12:32;6.07;;;3.43;;
18142;SDS011;9197;50.930;3.140;2022-11-21T05:15:24;6.67;;;2.93;;
18142;SDS011;9197;50.930;3.140;2022-11-21T05:17:51;6.23;;;2.97;;
18142;SDS011;9197;50.930;3.140;2022-11-21T05:20:18;4.30;;;2.47;;
18142;SDS011;9197;50.930;3.140;2022-11-21T05:22:49;5.37;;;2.77;;
18142;SDS011;9197;50.930;3.140;2022-11-21T05:25:16;8.03;;;3.50;;
18142;SDS011;9197;50.930;3.140;2022-11-21T05:27:43;6.83;;;2.80;;
18142;SDS011;9197;50.930;3.140;2022-11-21T05:30:11;6.03;;;3.47;;
18142;SDS011;9197;50.930;3.140;2022-11-21T05:32:39;13.83;;;3.27;;
18142;SDS011;9197;50.930;3.140;2022-11-21T05:35:07;7.70;;;3.30;;
18142;SDS011;9197;50.930;3.140;2022-11-21T05:37:34;6.93;;;3.40;;
18142;SDS011;9197;50.930;3.140;2022-11-21T05:40:01;17.03;;;3.83;;
18142;SDS011;9197;50.930;3.140;2022-11-21T05:42:28;7.30;;;3.77;;
18142;SDS011;9197;50.930;3.140;2022-11-21T05:45:13;9.07;;;3.30;;
18142;SDS011;9197;50.930;3.140;2022-11-21T05:47:42;8.83;;;3.90;;
18142;SDS011;9197;50.930;3.140;2022-11-21T05:50:09;7.00;;;3.90;;
18142;SDS011;9197;50.930;3.140;2022-11-21T05:52:36;10.83;;;4.20;;
18142;SDS011;9197;50.930;3.140;2022-11-21T05:55:04;14.33;;;4.07;;
18142;SDS011;9197;50.930;3.140;2022-11-21T05:57:31;9.90;;;4.13;;
18142;SDS011;9197;50.930;3.140;2022-11-21T05:59:58;12.63;;;4.70;;
18142;SDS011;9197;50.930;3.140;2022-11-21T06:02:25;9.13;;;3.93;;
18142;SDS011;9197;50.930;3.140;2022-11-21T06:05:11;9.87;;;4.37;;
18142;SDS011;9197;50.930;3.140;2022-11-21T06:07:38;8.00;;;4.63;;
18142;SDS011;9197;50.930;3.140;2022-11-21T06:10:06;8.40;;;4.50;;
18142;SDS011;9197;50.930;3.140;2022-11-21T06:12:33;11.37;;;4.33;;
18142;SDS011;9197;50.930;3.140;2022-11-21T06:15:00;8.50;;;4.80;;
18142;SDS011;9197;50.930;3.140;2022-11-21T06:17:27;9.97;;;4.63;;
18142;SDS011;9197;50.930;3.140;2022-11-21T06:19:54;11.83;;;5.00;;
18142;SDS011;9197;50.930;3.140;2022-11-21T06:22:23;11.87;;;4.43;;
18142;SDS011;9197;50.930;3.140;2022-11-21T06:24:50;11.93;;;4.93;;
18142;SDS011;9197;50.930;3.140;2022-11-21T06:27:17;10.43;;;4.60;;
18142;SDS011;9197;50.930;3.140;2022-11-21T06:29:44;11.43;;;4.80;;
18142;SDS011;9197;50.930;3.140;2022-11-21T06:32:11;8.60;;;5.33;;
18142;SDS011;9197;50.930;3.140;2022-11-21T06:34:38;11.30;;;5.83;;
18142;SDS011;9197;50.930;3.140;2022-11-21T06:37:06;14.80;;;5.97;;
18142;SDS011;9197;50.930;3.140;2022-11-21T06:39:34;12.33;;;5.83;;
18142;SDS011;9197;50.930;3.140;2022-11-21T06:42:01;7.40;;;5.17;;
18142;SDS011;9197;50.930;3.140;2022-11-21T06:44:28;10.87;;;5.67;;
18142;SDS011;9197;50.930;3.140;2022-11-21T06:46:55;10.37;;;4.53;;
18142;SDS011;9197;50.930;3.140;2022-11-21T06:49:23;12.13;;;5.43;;
18142;SDS011;9197;50.930;3.140;2022-11-21T06:51:50;10.90;;;6.73;;
18142;SDS011;9197;50.930;3.140;2022-11-21T06:54:17;12.23;;;5.30;;
18142;SDS011;9197;50.930;3.140;2022-11-21T06:56:46;10.33;;;5.27;;
18142;SDS011;9197;50.930;3.140;2022-11-21T06:59:13;12.87;;;5.00;;
18142;SDS011;9197;50.930;3.140;2022-11-21T07:01:40;10.30;;;5.90;;
18142;SDS011;9197;50.930;3.140;2022-11-21T07:04:07;8.43;;;4.57;;
18142;SDS011;9197;50.930;3.140;2022-11-21T07:06:34;10.93;;;5.50;;
18142;SDS011;9197;50.930;3.140;2022-11-21T07:09:02;10.10;;;4.57;;
18142;SDS011;9197;50.930;3.140;2022-11-21T07:11:29;11.03;;;4.67;;
18142;SDS011;9197;50.930;3.140;2022-11-21T07:13:58;9.80;;;5.23;;
18142;SDS011;9197;50.930;3.140;2022-11-21T07:16:24;15.57;;;6.07;;
18142;SDS011;9197;50.930;3.140;2022-11-21T07:18:54;10.73;;;5.33;;
18142;SDS011;9197;50.930;3.140;2022-11-21T07:21:21;15.80;;;4.47;;
18142;SDS011;9197;50.930;3.140;2022-11-21T07:23:49;10.87;;;4.50;;
18142;SDS011;9197;50.930;3.140;2022-11-21T07:26:16;8.97;;;4.83;;
18142;SDS011;9197;50.930;3.140;2022-11-21T07:28:43;10.37;;;5.73;;
18142;SDS011;9197;50.930;3.140;2022-11-21T07:31:11;9.70;;;5.80;;
18142;SDS011;9197;50.930;3.140;2022-11-21T07:33:39;11.10;;;6.90;;
18142;SDS011;9197;50.930;3.140;2022-11-21T07:36:07;12.80;;;7.50;;
18142;SDS011;9197;50.930;3.140;2022-11-21T07:38:34;14.03;;;6.23;;
18142;SDS011;9197;50.930;3.140;2022-11-21T07:41:01;8.97;;;5.30;;
18142;SDS011;9197;50.930;3.140;2022-11-21T07:43:28;6.10;;;5.13;;
18142;SDS011;9197;50.930;3.140;2022-11-21T07:45:55;8.40;;;4.53;;
18142;SDS011;9197;50.930;3.140;2022-11-21T07:48:24;10.23;;;5.50;;
18142;SDS011;9197;50.930;3.140;2022-11-21T07:50:51;9.80;;;5.00;;
18142;SDS011;9197;50.930;3.140;2022-11-21T07:53:18;13.03;;;5.93;;
18142;SDS011;9197;50.930;3.140;2022-11-21T07:55:45;11.97;;;5.83;;
18142;SDS011;9197;50.930;3.140;2022-11-21T07:58:14;10.03;;;5.63;;
18142;SDS011;9197;50.930;3.140;2022-11-21T08:00:41;11.07;;;5.90;;
18142;SDS011;9197;50.930;3.140;2022-11-21T08:03:09;10.57;;;5.87;;
18142;SDS011;9197;50.930;3.140;2022-11-21T08:05:38;14.03;;;5.53;;
18142;SDS011;9197;50.930;3.140;2022-11-21T08:08:06;9.33;;;5.67;;
18142;SDS011;9197;50.930;3.140;2022-11-21T08:10:35;11.00;;;5.87;;
18142;SDS011;9197;50.930;3.140;2022-11-21T08:13:03;11.20;;;6.00;;
18142;SDS011;9197;50.930;3.140;2022-11-21T08:15:30;9.90;;;4.70;;
18142;SDS011;9197;50.930;3.140;2022-11-21T08:17:57;14.87;;;5.90;;
18142;SDS011;9197;50.930;3.140;2022-11-21T08:20:24;11.20;;;5.40;;
18142;SDS011;9197;50.930;3.140;2022-11-21T08:22:53;12.17;;;4.87;;
18142;SDS011;9197;50.930;3.140;2022-11-21T08:25:20;10.60;;;5.60;;
18142;SDS011;9197;50.930;3.140;2022-11-21T08:27:47;7.73;;;4.97;;
18142;SDS011;9197;50.930;3.140;2022-11-21T08:30:14;7.43;;;4.87;;
18142;SDS011;9197;50.930;3.140;2022-11-21T08:32:41;10.00;;;4.90;;
18142;SDS011;9197;50.930;3.140;2022-11-21T08:35:08;10.87;;;4.73;;
18142;SDS011;9197;50.930;3.140;2022-11-21T08:37:36;9.53;;;4.23;;
18142;SDS011;9197;50.930;3.140;2022-11-21T08:40:05;7.60;;;3.50;;
18142;SDS011;9197;50.930;3.140;2022-11-21T08:42:33;6.93;;;4.53;;
18142;SDS011;9197;50.930;3.140;2022-11-21T08:45:02;14.43;;;4.77;;
18142;SDS011;9197;50.930;3.140;2022-11-21T08:47:31;7.53;;;3.67;;
18142;SDS011;9197;50.930;3.140;2022-11-21T08:49:58;7.07;;;4.13;;
18142;SDS011;9197;50.930;3.140;2022-11-21T08:52:25;9.13;;;4.00;;
18142;SDS011;9197;50.930;3.140;2022-11-21T08:54:52;9.63;;;3.77;;
18142;SDS011;9197;50.930;3.140;2022-11-21T08:57:21;9.80;;;3.47;;
18142;SDS011;9197;50.930;3.140;2022-11-21T08:59:48;9.70;;;3.70;;
18142;SDS011;9197;50.930;3.140;2022-11-21T09:02:15;10.30;;;4.03;;
18142;SDS011;9197;50.930;3.140;2022-11-21T09:04:42;11.63;;;4.27;;
18142;SDS011;9197;50.930;3.140;2022-11-21T09:07:09;11.07;;;4.53;;
18142;SDS011;9197;50.930;3.140;2022-11-21T09:09:36;8.63;;;3.83;;
18142;SDS011;9197;50.930;3.140;2022-11-21T09:12:04;9.43;;;3.87;;
18142;SDS011;9197;50.930;3.140;2022-11-21T09:14:33;7.40;;;3.60;;
18142;SDS011;9197;50.930;3.140;2022-11-21T09:17:17;10.97;;;4.30;;
18142;SDS011;9197;50.930;3.140;2022-11-21T09:20:02;12.00;;;3.90;;
18142;SDS011;9197;50.930;3.140;2022-11-21T09:22:29;9.90;;;4.83;;
18142;SDS011;9197;50.930;3.140;2022-11-21T09:24:57;8.50;;;4.67;;
18142;SDS011;9197;50.930;3.140;2022-11-21T09:27:24;7.87;;;4.47;;
18142;SDS011;9197;50.930;3.140;2022-11-21T09:29:52;11.50;;;5.17;;
18142;SDS011;9197;50.930;3.140;2022-11-21T09:32:20;12.60;;;5.07;;
18142;SDS011;9197;50.930;3.140;2022-11-21T09:34:47;15.97;;;5.10;;
18142;SDS011;9197;50.930;3.140;2022-11-21T09:37:14;13.27;;;4.90;;
18142;SDS011;9197;50.930;3.140;2022-11-21T09:39:41;12.33;;;5.00;;
18142;SDS011;9197;50.930;3.140;2022-11-21T09:42:15;18.60;;;5.37;;
18142;SDS011;9197;50.930;3.140;2022-11-21T09:44:59;10.60;;;5.90;;
18142;SDS011;9197;50.930;3.140;2022-11-21T09:47:30;9.70;;;7.13;;
18142;SDS011;9197;50.930;3.140;2022-11-21T09:49:58;17.17;;;8.80;;
18142;SDS011;9197;50.930;3.140;2022-11-21T09:52:28;16.90;;;9.37;;
18142;SDS011;9197;50.930;3.140;2022-11-21T09:54:57;13.30;;;9.77;;
18142;SDS011;9197;50.930;3.140;2022-11-21T09:57:25;21.03;;;10.90;;
18142;SDS011;9197;50.930;3.140;2022-11-21T09:59:52;23.77;;;9.53;;
18142;SDS011;9197;50.930;3.140;2022-11-21T10:02:22;19.63;;;10.10;;
18142;SDS011;9197;50.930;3.140;2022-11-21T10:04:49;23.27;;;12.77;;
18142;SDS011;9197;50.930;3.140;2022-11-21T10:07:19;20.53;;;10.67;;
18142;SDS011;9197;50.930;3.140;2022-11-21T10:09:54;19.57;;;10.93;;
18142;SDS011;9197;50.930;3.140;2022-11-21T10:12:24;18.07;;;11.83;;
18142;SDS011;9197;50.930;3.140;2022-11-21T10:15:08;22.93;;;13.33;;
18142;SDS011;9197;50.930;3.140;2022-11-21T10:17:42;27.57;;;15.23;;
18142;SDS011;9197;50.930;3.140;2022-11-21T10:20:16;19.73;;;13.13;;
18142;SDS011;9197;50.930;3.140;2022-11-21T10:25:34;25.83;;;14.23;;
18142;SDS011;9197;50.930;3.140;2022-11-21T10:28:03;25.57;;;14.27;;
18142;SDS011;9197;50.930;3.140;2022-11-21T10:30:33;22.70;;;14.07;;
18142;SDS011;9197;50.930;3.140;2022-11-21T10:33:03;22.63;;;13.43;;
18142;SDS011;9197;50.930;3.140;2022-11-21T10:35:34;20.20;;;14.63;;
18142;SDS011;9197;50.930;3.140;2022-11-21T10:38:02;25.80;;;14.00;;
18142;SDS011;9197;50.930;3.140;2022-11-21T10:40:38;18.63;;;12.77;;
18142;SDS011;9197;50.930;3.140;2022-11-21T10:43:09;21.47;;;13.70;;
18142;SDS011;9197;50.930;3.140;2022-11-21T10:46:00;32.47;;;16.67;;
18142;SDS011;9197;50.930;3.140;2022-11-21T10:48:29;26.43;;;16.73;;
18142;SDS011;9197;50.930;3.140;2022-11-21T10:51:02;28.83;;;16.77;;
18142;SDS011;9197;50.930;3.140;2022-11-21T10:53:31;27.30;;;16.73;;
18142;SDS011;9197;50.930;3.140;2022-11-21T10:56:16;22.60;;;14.57;;
18142;SDS011;9197;50.930;3.140;2022-11-21T10:58:45;26.83;;;15.77;;
18142;SDS011;9197;50.930;3.140;2022-11-21T11:01:19;26.67;;;15.97;;
18142;SDS011;9197;50.930;3.140;2022-11-21T11:03:48;27.23;;;15.17;;
18142;SDS011;9197;50.930;3.140;2022-11-21T11:06:30;23.60;;;15.53;;
18142;SDS011;9197;50.930;3.140;2022-11-21T11:08:57;22.90;;;15.17;;
18142;SDS011;9197;50.930;3.140;2022-11-21T11:11:24;22.87;;;15.90;;
18142;SDS011;9197;50.930;3.140;2022-11-21T11:13:55;23.47;;;16.07;;
18142;SDS011;9197;50.930;3.140;2022-11-21T11:16:23;18.50;;;14.07;;
18142;SDS011;9197;50.930;3.140;2022-11-21T11:18:54;23.03;;;17.00;;
18142;SDS011;9197;50.930;3.140;2022-11-21T11:21:22;25.43;;;16.40;;
18142;SDS011;9197;50.930;3.140;2022-11-21T11:23:50;24.47;;;16.67;;
18142;SDS011;9197;50.930;3.140;2022-11-21T11:26:22;30.03;;;17.80;;
18142;SDS011;9197;50.930;3.140;2022-11-21T11:28:50;29.17;;;16.17;;
18142;SDS011;9197;50.930;3.140;2022-11-21T11:31:18;20.37;;;15.57;;
18142;SDS011;9197;50.930;3.140;2022-11-21T11:33:49;21.60;;;15.40;;
18142;SDS011;9197;50.930;3.140;2022-11-21T11:36:20;25.27;;;14.27;;
18142;SDS011;9197;50.930;3.140;2022-11-21T11:38:51;24.43;;;14.47;;
18142;SDS011;9197;50.930;3.140;2022-11-21T11:41:24;24.57;;;15.53;;
18142;SDS011;9197;50.930;3.140;2022-11-21T11:43:57;25.83;;;14.50;;
18142;SDS011;9197;50.930;3.140;2022-11-21T11:46:58;22.93;;;14.97;;
18142;SDS011;9197;50.930;3.140;2022-11-21T11:49:46;22.13;;;13.67;;
18142;SDS011;9197;50.930;3.140;2022-11-21T11:52:35;24.00;;;13.53;;
18142;SDS011;9197;50.930;3.140;2022-11-21T11:55:04;22.97;;;13.53;;
18142;SDS011;9197;50.930;3.140;2022-11-21T11:57:32;21.37;;;13.43;;
18142;SDS011;9197;50.930;3.140;2022-11-21T12:00:03;28.77;;;15.63;;
18142;SDS011;9197;50.930;3.140;2022-11-21T12:02:32;24.97;;;13.90;;
18142;SDS011;9197;50.930;3.140;2022-11-21T12:05:06;34.47;;;13.90;;
18142;SDS011;9197;50.930;3.140;2022-11-21T12:07:37;24.20;;;13.20;;
18142;SDS011;9197;50.930;3.140;2022-11-21T12:10:10;26.57;;;13.77;;
18142;SDS011;9197;50.930;3.140;2022-11-21T12:12:40;26.57;;;14.00;;
18142;SDS011;9197;50.930;3.140;2022-11-21T12:15:09;25.93;;;13.73;;
18142;SDS011;9197;50.930;3.140;2022-11-21T12:18:05;22.83;;;13.37;;
18142;SDS011;9197;50.930;3.140;2022-11-21T12:20:35;36.80;;;14.20;;
18142;SDS011;9197;50.930;3.140;2022-11-21T12:23:04;26.40;;;13.20;;
18142;SDS011;9197;50.930;3.140;2022-11-21T12:25:33;22.77;;;12.77;;
18142;SDS011;9197;50.930;3.140;2022-11-21T12:28:02;20.13;;;11.17;;
18142;SDS011;9197;50.930;3.140;2022-11-21T12:30:46;23.70;;;13.90;;
18142;SDS011;9197;50.930;3.140;2022-11-21T12:33:18;22.20;;;12.60;;
18142;SDS011;9197;50.930;3.140;2022-11-21T12:35:49;28.37;;;12.30;;
18142;SDS011;9197;50.930;3.140;2022-11-21T12:38:25;25.20;;;10.90;;
18142;SDS011;9197;50.930;3.140;2022-11-21T12:40:56;19.77;;;12.10;;
18142;SDS011;9197;50.930;3.140;2022-11-21T12:43:56;21.10;;;10.83;;
18142;SDS011;9197;50.930;3.140;2022-11-21T12:46:24;24.63;;;11.50;;
18142;SDS011;9197;50.930;3.140;2022-11-21T12:48:55;24.00;;;9.77;;
18142;SDS011;9197;50.930;3.140;2022-11-21T12:51:45;27.33;;;11.07;;
18142;SDS011;9197;50.930;3.140;2022-11-21T12:54:38;22.03;;;11.30;;
18142;SDS011;9197;50.930;3.140;2022-11-21T12:57:10;23.93;;;10.17;;
18142;SDS011;9197;50.930;3.140;2022-11-21T13:02:25;16.80;;;10.23;;
18142;SDS011;9197;50.930;3.140;2022-11-21T13:04:55;19.47;;;10.33;;
18142;SDS011;9197;50.930;3.140;2022-11-21T13:07:24;22.03;;;10.53;;
18142;SDS011;9197;50.930;3.140;2022-11-21T13:09:55;22.50;;;9.37;;
18142;SDS011;9197;50.930;3.140;2022-11-21T13:12:25;18.53;;;9.03;;
18142;SDS011;9197;50.930;3.140;2022-11-21T13:14:54;19.03;;;8.57;;
18142;SDS011;9197;50.930;3.140;2022-11-21T13:17:27;19.70;;;8.47;;
18142;SDS011;9197;50.930;3.140;2022-11-21T13:20:01;16.90;;;9.30;;
18142;SDS011;9197;50.930;3.140;2022-11-21T13:22:47;18.47;;;13.33;;
18142;SDS011;9197;50.930;3.140;2022-11-21T13:28:01;17.13;;;8.10;;
18142;SDS011;9197;50.930;3.140;2022-11-21T13:30:48;22.93;;;8.17;;
18142;SDS011;9197;50.930;3.140;2022-11-21T13:35:58;17.60;;;6.77;;
18142;SDS011;9197;50.930;3.140;2022-11-21T13:38:25;11.33;;;6.73;;
18142;SDS011;9197;50.930;3.140;2022-11-21T13:40:52;17.20;;;6.63;;
18142;SDS011;9197;50.930;3.140;2022-11-21T13:43:35;19.07;;;5.90;;
18142;SDS011;9197;50.930;3.140;2022-11-21T13:46:02;17.83;;;7.37;;
18142;SDS011;9197;50.930;3.140;2022-11-21T13:48:42;16.00;;;6.03;;
18142;SDS011;9197;50.930;3.140;2022-11-21T13:57:06;15.60;;;5.53;;
18142;SDS011;9197;50.930;3.140;2022-11-21T13:59:43;19.13;;;5.63;;
18142;SDS011;9197;50.930;3.140;2022-11-21T14:02:21;15.27;;;5.47;;
18142;SDS011;9197;50.930;3.140;2022-11-21T14:05:00;16.97;;;6.37;;
18142;SDS011;9197;50.930;3.140;2022-11-21T14:07:30;12.50;;;4.87;;
18142;SDS011;9197;50.930;3.140;2022-11-21T14:09:58;17.77;;;5.77;;
18142;SDS011;9197;50.930;3.140;2022-11-21T14:12:27;21.93;;;7.50;;
18142;SDS011;9197;50.930;3.140;2022-11-21T14:15:09;17.63;;;6.47;;
18142;SDS011;9197;50.930;3.140;2022-11-21T14:17:40;16.90;;;6.83;;
18142;SDS011;9197;50.930;3.140;2022-11-21T14:20:13;12.87;;;7.13;;
18142;SDS011;9197;50.930;3.140;2022-11-21T14:22:42;13.30;;;7.23;;
18142;SDS011;9197;50.930;3.140;2022-11-21T14:25:14;21.23;;;6.83;;
18142;SDS011;9197;50.930;3.140;2022-11-21T14:27:44;17.63;;;6.73;;
18142;SDS011;9197;50.930;3.140;2022-11-21T14:30:27;14.70;;;7.30;;
18142;SDS011;9197;50.930;3.140;2022-11-21T14:32:54;12.07;;;6.37;;
18142;SDS011;9197;50.930;3.140;2022-11-21T14:35:22;17.87;;;8.27;;
18142;SDS011;9197;50.930;3.140;2022-11-21T14:37:50;17.33;;;6.67;;
18142;SDS011;9197;50.930;3.140;2022-11-21T14:40:21;16.50;;;7.07;;
18142;SDS011;9197;50.930;3.140;2022-11-21T14:42:48;16.17;;;7.50;;
18142;SDS011;9197;50.930;3.140;2022-11-21T14:45:16;17.93;;;6.40;;
18142;SDS011;9197;50.930;3.140;2022-11-21T14:47:46;22.83;;;7.03;;
18142;SDS011;9197;50.930;3.140;2022-11-21T14:50:21;18.33;;;6.40;;
18142;SDS011;9197;50.930;3.140;2022-11-21T14:52:48;19.13;;;6.87;;
18142;SDS011;9197;50.930;3.140;2022-11-21T14:55:21;12.07;;;5.97;;
18142;SDS011;9197;50.930;3.140;2022-11-21T14:57:50;13.97;;;6.10;;
18142;SDS011;9197;50.930;3.140;2022-11-21T15:00:18;18.03;;;7.07;;
18142;SDS011;9197;50.930;3.140;2022-11-21T15:02:49;16.17;;;6.33;;
18142;SDS011;9197;50.930;3.140;2022-11-21T15:05:16;15.33;;;6.60;;
18142;SDS011;9197;50.930;3.140;2022-11-21T15:07:45;17.57;;;6.13;;
18142;SDS011;9197;50.930;3.140;2022-11-21T15:10:13;19.00;;;6.37;;
18142;SDS011;9197;50.930;3.140;2022-11-21T15:12:43;21.90;;;6.47;;
18142;SDS011;9197;50.930;3.140;2022-11-21T15:15:18;18.17;;;5.60;;
18142;SDS011;9197;50.930;3.140;2022-11-21T15:17:52;19.30;;;5.87;;
18142;SDS011;9197;50.930;3.140;2022-11-21T15:20:20;11.20;;;5.60;;
18142;SDS011;9197;50.930;3.140;2022-11-21T15:22:48;10.50;;;5.77;;